Aviation Digital Data Service (ADDS)

Output produced by METARs form (0337 UTC 05 June 2020)
found at http://www.aviationweather.gov/metar/data/
 
Forecast for: WBSB (BRUNEI INTL AIRP, MY)
Text: TAF WBSB 042300Z 0500/0606 03009KT 9999 SCT012 FEW015CB BKN150
Forecast period: 0000 UTC 05 June 2020 to 0600 UTC 06 June 2020
Forecast type: FROM: standard forecast or significant change
Winds: from the NNE (30 degrees) at 10 MPH (9 knots; 4.6 m/s)
Visibility: 6 or more miles 10+ km)
Ceiling: 15000 feet AGL
Clouds: scattered clouds at 1200 feet AGL
few clouds at 1500 feet AGL
broken clouds at 15000 feet AGL
Weather: no significant weather forecast for this period
Text: TEMPO 0504/0506 6000 TSRA
Forecast period: 0400 to 0600 UTC 05 June 2020
Forecast type: TEMPORARY: The following changes expected for less than half the time period
Visibility: 4 miles (6 km)
Ceiling: unknown
Clouds: missing
Weather: TSRA  (rain associated with thunderstorm(s))